createdAt,value
2023-04-14T00:01:52.460Z,18.98
2023-04-14T00:04:19.947Z,17.70
2023-04-14T00:06:47.219Z,18.00
2023-04-14T00:09:14.329Z,16.30
2023-04-14T00:11:41.339Z,19.38
2023-04-14T00:14:08.269Z,19.65
2023-04-14T00:16:35.576Z,19.10
2023-04-14T00:19:02.910Z,17.52
2023-04-14T00:21:29.993Z,17.95
2023-04-14T00:23:56.906Z,19.92
2023-04-14T00:26:24.474Z,16.60
2023-04-14T00:28:52.037Z,14.57
2023-04-14T00:31:19.042Z,16.45
2023-04-14T00:33:46.006Z,17.05
2023-04-14T00:36:12.950Z,17.40
2023-04-14T00:38:39.896Z,17.55
2023-04-14T00:41:06.899Z,19.88
2023-04-14T00:43:33.987Z,15.70
2023-04-14T00:46:01.224Z,15.65
2023-04-14T00:48:29.248Z,15.05
2023-04-14T00:50:56.410Z,13.57
2023-04-14T00:53:23.937Z,15.50
2023-04-14T00:55:51.640Z,13.30
2023-04-14T00:58:18.765Z,17.17
2023-04-14T01:00:46.274Z,17.27
2023-04-14T01:03:13.484Z,15.05
2023-04-14T01:05:40.906Z,13.65
2023-04-14T01:08:07.996Z,14.43
2023-04-14T01:11:06.652Z,15.68
2023-04-14T01:13:51.443Z,14.20
2023-04-14T01:16:33.282Z,16.23
2023-04-14T01:19:17.056Z,13.32
2023-04-14T01:21:50.796Z,15.48
2023-04-14T01:24:35.874Z,18.75
2023-04-14T01:27:39.485Z,18.55
2023-04-14T01:30:28.424Z,19.67
2023-04-14T01:32:58.825Z,15.10
2023-04-14T01:35:37.331Z,18.83
2023-04-14T01:38:11.037Z,18.50
2023-04-14T01:40:41.319Z,14.55
2023-04-14T01:43:12.964Z,13.90
2023-04-14T01:45:50.929Z,13.20
2023-04-14T01:48:18.627Z,15.63
2023-04-14T01:50:47.414Z,20.73
2023-04-14T01:53:17.094Z,18.25
2023-04-14T01:55:45.854Z,14.25
2023-04-14T01:58:14.716Z,20.20
2023-04-14T02:00:43.004Z,16.70
2023-04-14T02:03:11.186Z,19.75
2023-04-14T02:05:40.154Z,16.63
2023-04-14T02:08:12.702Z,15.32
2023-04-14T02:10:44.156Z,18.85
2023-04-14T02:13:12.777Z,15.75
2023-04-14T02:15:41.146Z,15.45
2023-04-14T02:18:08.399Z,17.50
2023-04-14T02:20:42.666Z,20.25
2023-04-14T02:23:12.463Z,15.27
2023-04-14T02:25:49.904Z,16.77
2023-04-14T02:28:20.802Z,12.60
2023-04-14T02:30:52.532Z,15.65
2023-04-14T02:33:23.094Z,13.15
2023-04-14T02:36:17.130Z,14.93
2023-04-14T02:38:53.363Z,14.60
2023-04-14T02:41:28.675Z,16.75
2023-04-14T02:44:24.877Z,13.65
2023-04-14T02:47:13.648Z,13.95
2023-04-14T02:49:48.220Z,15.35
2023-04-14T02:52:20.328Z,15.20
2023-04-14T02:54:49.192Z,14.23
2023-04-14T02:57:18.586Z,16.35
2023-04-14T02:59:49.685Z,14.00
2023-04-14T03:02:18.955Z,13.70
2023-04-14T03:04:53.352Z,12.48
2023-04-14T03:07:29.602Z,14.50
2023-04-14T03:09:58.117Z,18.88
2023-04-14T03:12:26.130Z,20.30
2023-04-14T03:14:54.170Z,13.13
2023-04-14T03:17:22.900Z,17.98
2023-04-14T03:19:52.960Z,14.68
2023-04-14T03:22:22.191Z,12.77
2023-04-14T03:24:50.800Z,15.07
2023-04-14T03:27:22.745Z,16.33
2023-04-14T03:29:55.110Z,16.27
2023-04-14T03:32:26.259Z,15.75
2023-04-14T03:34:58.294Z,16.40
2023-04-14T03:37:28.465Z,15.65
2023-04-14T03:40:00.632Z,18.77
2023-04-14T03:42:29.724Z,17.70
2023-04-14T03:44:58.593Z,20.23
2023-04-14T03:47:28.689Z,18.45
2023-04-14T03:50:01.681Z,22.27
2023-04-14T03:52:35.550Z,16.70
2023-04-14T03:55:08.504Z,19.10
2023-04-14T03:57:39.286Z,16.08
2023-04-14T04:00:09.222Z,17.83
2023-04-14T04:02:46.229Z,16.85
2023-04-14T04:05:14.384Z,15.98
2023-04-14T04:07:44.720Z,17.63
2023-04-14T04:10:13.672Z,18.47
2023-04-14T04:12:43.711Z,19.10
2023-04-14T04:15:12.083Z,15.38
2023-04-14T04:17:41.831Z,19.58
2023-04-14T04:20:14.627Z,19.38
2023-04-14T04:22:45.472Z,17.83
2023-04-14T04:25:13.788Z,21.17
2023-04-14T04:27:50.416Z,16.80
2023-04-14T04:30:20.351Z,21.38
2023-04-14T04:32:48.507Z,19.52
2023-04-14T04:35:17.280Z,22.17
2023-04-14T04:37:47.268Z,21.83
2023-04-14T04:40:14.859Z,27.45
2023-04-14T04:42:43.193Z,37.00
2023-04-14T04:45:13.438Z,69.30
2023-04-14T04:47:41.902Z,40.92
2023-04-14T04:50:09.173Z,27.27
2023-04-14T04:52:36.222Z,28.08
2023-04-14T04:55:04.130Z,22.02
2023-04-14T04:57:31.490Z,24.30
2023-04-14T04:59:58.836Z,25.47
2023-04-14T05:02:26.060Z,29.88
2023-04-14T05:04:53.327Z,26.75
2023-04-14T05:07:21.025Z,26.30
2023-04-14T05:09:48.152Z,28.90
2023-04-14T05:12:15.546Z,33.45
2023-04-14T05:14:42.523Z,23.50
2023-04-14T05:17:09.501Z,28.20
2023-04-14T05:19:36.716Z,28.20
2023-04-14T05:22:03.622Z,25.98
2023-04-14T05:24:30.838Z,33.88
2023-04-14T05:27:12.987Z,33.40
2023-04-14T05:29:41.276Z,31.48
2023-04-14T05:32:08.710Z,34.17
2023-04-14T05:34:35.858Z,34.35
2023-04-14T05:37:03.088Z,33.42
2023-04-14T05:39:30.076Z,32.72
2023-04-14T05:41:57.069Z,33.42
2023-04-14T05:44:24.299Z,37.58
2023-04-14T05:46:51.710Z,34.28
2023-04-14T05:49:18.832Z,35.75
2023-04-14T05:51:47.656Z,33.90
2023-04-14T05:54:14.646Z,40.20
2023-04-14T05:56:41.566Z,34.47
2023-04-14T05:59:08.800Z,34.00
2023-04-14T06:01:35.835Z,31.27
2023-04-14T06:04:03.811Z,35.28
2023-04-14T06:06:32.575Z,35.70
2023-04-14T06:08:59.759Z,34.50
2023-04-14T06:11:26.898Z,34.38
2023-04-14T06:13:53.876Z,30.17
2023-04-14T06:16:20.816Z,29.40
2023-04-14T06:18:47.867Z,27.38
2023-04-14T06:21:14.829Z,28.42
2023-04-14T06:23:41.776Z,22.77
2023-04-14T06:26:09.040Z,24.83
2023-04-14T06:28:36.071Z,26.60
2023-04-14T06:31:02.997Z,24.23
2023-04-14T06:33:29.969Z,24.30
2023-04-14T06:35:57.042Z,27.20
2023-04-14T06:38:25.196Z,26.25
2023-04-14T06:40:53.368Z,22.15
2023-04-14T06:43:20.709Z,27.67
2023-04-14T06:45:47.667Z,26.05
2023-04-14T06:48:15.579Z,19.10
2023-04-14T06:50:44.176Z,18.88
2023-04-14T06:53:11.476Z,21.10
2023-04-14T06:55:42.642Z,19.27
2023-04-14T06:58:09.627Z,20.25
2023-04-14T07:00:36.618Z,20.88
2023-04-14T07:03:03.706Z,24.95
2023-04-14T07:05:30.815Z,20.80
2023-04-14T07:07:57.768Z,19.58
2023-04-14T07:10:24.823Z,20.48
2023-04-14T07:12:51.883Z,21.90
2023-04-14T07:15:18.964Z,25.63
2023-04-14T07:17:46.299Z,20.55
2023-04-14T07:20:13.493Z,19.83
2023-04-14T07:22:40.699Z,18.05
2023-04-14T07:25:08.120Z,17.48
2023-04-14T07:27:35.410Z,17.15
2023-04-14T07:30:02.469Z,16.63
2023-04-14T07:32:29.663Z,18.63
2023-04-14T07:34:58.897Z,17.65
2023-04-14T07:37:26.797Z,14.82
2023-04-14T07:39:53.786Z,16.20
2023-04-14T07:42:20.821Z,16.10
2023-04-14T07:44:47.788Z,14.85
2023-04-14T07:47:14.747Z,18.83
2023-04-14T07:49:41.749Z,14.40
2023-04-14T07:52:08.828Z,16.48
2023-04-14T07:54:35.885Z,15.32
2023-04-14T07:57:02.952Z,16.27
2023-04-14T07:59:31.850Z,17.17
2023-04-14T08:01:59.011Z,15.13
2023-04-14T08:04:27.036Z,13.10
2023-04-14T08:06:54.084Z,13.38
2023-04-14T08:09:21.056Z,14.15
2023-04-14T08:11:48.001Z,14.10
2023-04-14T08:14:15.020Z,11.35
2023-04-14T08:16:42.589Z,16.15
2023-04-14T08:19:09.666Z,13.13
2023-04-14T08:21:36.706Z,12.27
2023-04-14T08:24:03.981Z,13.48
2023-04-14T08:26:30.964Z,11.93
2023-04-14T08:28:57.903Z,11.40
2023-04-14T08:31:25.782Z,11.18
2023-04-14T08:33:53.176Z,11.40
2023-04-14T08:36:21.010Z,13.73
2023-04-14T08:38:48.060Z,11.95
2023-04-14T08:41:19.135Z,11.70
2023-04-14T08:43:46.307Z,11.18
2023-04-14T08:46:16.356Z,12.57
2023-04-14T08:48:47.714Z,13.90
2023-04-14T08:51:22.719Z,9.88
2023-04-14T08:53:51.643Z,11.15
2023-04-14T08:56:20.972Z,11.70
2023-04-14T08:58:48.744Z,14.15
2023-04-14T09:01:16.720Z,10.43
2023-04-14T09:03:44.201Z,11.27
2023-04-14T09:06:12.268Z,9.77
2023-04-14T09:08:39.387Z,9.82
2023-04-14T09:11:06.440Z,9.48
2023-04-14T09:13:34.073Z,11.07
2023-04-14T09:16:01.793Z,9.63
2023-04-14T09:18:29.508Z,7.72
2023-04-14T09:21:29.010Z,7.78
2023-04-14T09:23:47.198Z,6.93
2023-04-14T09:26:14.370Z,9.98
2023-04-14T09:28:42.035Z,8.48
2023-04-14T09:31:11.359Z,7.95
2023-04-14T09:33:40.723Z,10.85
2023-04-14T09:36:22.415Z,10.13
2023-04-14T09:38:51.557Z,7.30
2023-04-14T09:41:27.603Z,9.18
2023-04-14T09:43:54.776Z,7.85
2023-04-14T09:46:21.900Z,11.10
2023-04-14T09:48:56.621Z,7.13
2023-04-14T09:51:30.221Z,7.47
2023-04-14T09:54:03.628Z,7.28
2023-04-14T09:56:30.905Z,11.18
2023-04-14T09:59:02.880Z,10.85
2023-04-14T10:01:34.020Z,7.35
2023-04-14T10:04:03.069Z,7.60
2023-04-14T10:06:32.116Z,13.10
2023-04-14T10:08:59.848Z,6.63
2023-04-14T10:11:29.588Z,11.68
2023-04-14T10:14:00.042Z,10.80
2023-04-14T10:16:27.502Z,8.30
2023-04-14T10:18:55.398Z,8.18
2023-04-14T10:21:23.064Z,8.70
2023-04-14T10:23:51.589Z,10.60
2023-04-14T10:26:19.871Z,7.13
2023-04-14T10:28:51.522Z,8.90
2023-04-14T10:31:33.275Z,8.48
2023-04-14T10:34:16.401Z,12.65
2023-04-14T10:36:44.054Z,9.48
2023-04-14T10:39:12.679Z,6.70
2023-04-14T10:41:47.847Z,8.95
2023-04-14T10:44:32.606Z,10.73
2023-04-14T10:47:02.589Z,8.02
2023-04-14T10:49:33.034Z,6.63
2023-04-14T10:52:08.669Z,8.23
2023-04-14T10:54:55.251Z,7.25
2023-04-14T10:57:23.933Z,6.75
2023-04-14T10:59:56.033Z,5.60
2023-04-14T11:02:34.458Z,13.13
2023-04-14T11:05:12.092Z,7.35
2023-04-14T11:07:47.149Z,7.65
2023-04-14T11:10:17.179Z,8.55
2023-04-14T11:12:45.410Z,7.88
2023-04-14T11:15:12.651Z,7.80
2023-04-14T11:17:43.185Z,7.13
2023-04-14T11:20:22.095Z,7.53
2023-04-14T11:22:52.434Z,6.35
2023-04-14T11:25:24.036Z,6.32
2023-04-14T11:27:52.241Z,5.95
2023-04-14T11:30:21.532Z,5.50
2023-04-14T11:32:53.881Z,6.35
2023-04-14T11:35:25.448Z,6.75
2023-04-14T11:37:57.221Z,10.63
2023-04-14T11:40:28.918Z,5.35
2023-04-14T11:42:58.342Z,7.25
2023-04-14T11:45:31.912Z,5.45
2023-04-14T11:48:04.798Z,6.43
2023-04-14T11:50:35.867Z,6.13
2023-04-14T11:53:09.960Z,7.82
2023-04-14T11:55:37.329Z,10.35
2023-04-14T11:58:04.769Z,5.45
2023-04-14T12:00:31.945Z,5.13
2023-04-14T12:03:03.616Z,5.13
2023-04-14T12:05:33.569Z,5.07
2023-04-14T12:08:09.055Z,6.53
2023-04-14T12:10:42.070Z,5.05
2023-04-14T12:13:11.241Z,5.60
2023-04-14T12:15:42.566Z,7.03
2023-04-14T12:18:15.878Z,5.72
2023-04-14T12:20:47.518Z,6.65
2023-04-14T12:23:16.056Z,4.95
2023-04-14T12:25:43.371Z,3.97
2023-04-14T12:28:10.404Z,5.03
2023-04-14T12:30:37.931Z,8.43
2023-04-14T12:33:12.512Z,4.68
2023-04-14T12:35:40.853Z,6.30
2023-04-14T12:38:14.857Z,3.35
2023-04-14T12:40:45.917Z,4.78
2023-04-14T12:43:14.969Z,3.25
2023-04-14T12:45:48.518Z,3.63
2023-04-14T12:48:17.697Z,6.10
2023-04-14T12:50:45.257Z,4.50
2023-04-14T12:53:29.432Z,3.22
2023-04-14T12:56:16.338Z,2.83
2023-04-14T12:58:48.636Z,3.92
2023-04-14T13:01:18.989Z,2.45
2023-04-14T13:03:51.784Z,3.42
2023-04-14T13:06:22.501Z,2.80
2023-04-14T13:08:52.532Z,3.05
2023-04-14T13:11:22.201Z,4.45
2023-04-14T13:13:49.583Z,7.97
2023-04-14T13:16:19.105Z,2.72
2023-04-14T13:18:48.221Z,5.50
2023-04-14T13:21:15.976Z,2.78
2023-04-14T13:23:43.068Z,4.20
2023-04-14T13:26:10.536Z,3.83
2023-04-14T13:28:37.826Z,4.60
2023-04-14T13:31:05.105Z,3.17
2023-04-14T13:33:33.607Z,2.53
2023-04-14T13:36:03.292Z,2.42
2023-04-14T13:38:31.098Z,4.72
2023-04-14T13:40:58.220Z,3.22
2023-04-14T13:43:25.180Z,3.63
2023-04-14T13:45:52.909Z,5.63
2023-04-14T13:48:20.085Z,8.70
2023-04-14T13:50:47.511Z,5.03
2023-04-14T13:53:14.586Z,4.68
2023-04-14T13:55:42.064Z,5.13
2023-04-14T13:58:09.525Z,6.18
2023-04-14T14:00:36.896Z,4.10
2023-04-14T14:03:04.290Z,2.58
2023-04-14T14:05:31.571Z,4.13
2023-04-14T14:07:58.694Z,9.75
2023-04-14T14:10:25.852Z,5.22
2023-04-14T14:12:53.327Z,7.53
2023-04-14T14:15:20.433Z,6.82
2023-04-14T14:17:47.745Z,5.00
2023-04-14T14:20:14.824Z,5.28
2023-04-14T14:22:41.815Z,5.22
2023-04-14T14:25:19.184Z,3.15
2023-04-14T14:27:48.249Z,5.72
2023-04-14T14:30:15.784Z,4.90
2023-04-14T14:32:42.821Z,3.47
2023-04-14T14:35:10.493Z,3.53
2023-04-14T14:37:37.583Z,4.40
2023-04-14T14:40:05.251Z,3.95
2023-04-14T14:42:32.314Z,5.88
2023-04-14T14:45:01.084Z,6.82
2023-04-14T14:47:28.814Z,5.70
2023-04-14T14:50:01.715Z,7.30
2023-04-14T14:52:34.663Z,3.55
2023-04-14T14:55:03.107Z,6.63
2023-04-14T14:57:30.792Z,6.07
2023-04-14T14:59:57.905Z,9.57
2023-04-14T15:02:25.725Z,5.07
2023-04-14T15:04:54.086Z,3.20
2023-04-14T15:07:21.123Z,3.88
2023-04-14T15:09:49.424Z,5.82
2023-04-14T15:12:17.307Z,4.45
2023-04-14T15:14:44.781Z,5.57
2023-04-14T15:17:11.806Z,6.50
2023-04-14T15:19:38.955Z,6.30
2023-04-14T15:22:05.946Z,14.77
2023-04-14T15:24:32.961Z,9.43
2023-04-14T15:26:59.962Z,5.60
2023-04-14T15:29:26.931Z,5.97
2023-04-14T15:31:54.088Z,5.25
2023-04-14T15:34:21.617Z,5.13
2023-04-14T15:36:49.023Z,4.38
2023-04-14T15:39:15.948Z,5.90
2023-04-14T15:41:43.335Z,5.95
2023-04-14T15:44:10.511Z,7.35
2023-04-14T15:46:37.476Z,7.40
2023-04-14T15:49:04.452Z,8.65
2023-04-14T15:51:31.493Z,8.30
2023-04-14T15:53:58.411Z,14.18
2023-04-14T15:56:25.917Z,7.75
2023-04-14T15:58:52.896Z,11.10
2023-04-14T16:01:20.057Z,6.35
2023-04-14T16:03:47.437Z,8.23
2023-04-14T16:06:15.191Z,9.82
2023-04-14T16:08:42.221Z,7.32
2023-04-14T16:11:15.713Z,7.45
2023-04-14T16:13:46.041Z,7.55
2023-04-14T16:16:14.811Z,10.43
2023-04-14T16:18:42.435Z,7.90
2023-04-14T16:21:09.558Z,17.05
2023-04-14T16:23:36.589Z,11.73
2023-04-14T16:26:03.795Z,11.10
2023-04-14T16:28:30.728Z,12.38
2023-04-14T16:31:02.828Z,12.95
2023-04-14T16:33:32.396Z,14.23
2023-04-14T16:36:07.265Z,11.35
2023-04-14T16:38:34.558Z,11.57
2023-04-14T16:41:02.558Z,8.57
2023-04-14T16:43:29.786Z,7.35
2023-04-14T16:46:04.440Z,8.73
2023-04-14T16:48:32.570Z,7.07
2023-04-14T16:51:10.870Z,9.82
2023-04-14T16:53:38.986Z,6.10
2023-04-14T16:56:11.185Z,7.07
2023-04-14T16:58:38.947Z,7.13
2023-04-14T17:01:07.341Z,6.55
2023-04-14T17:03:35.022Z,11.10
2023-04-14T17:06:02.986Z,6.30
2023-04-14T17:08:30.042Z,9.60
2023-04-14T17:10:57.148Z,10.10
2023-04-14T17:13:24.134Z,10.02
2023-04-14T17:15:58.802Z,8.52
2023-04-14T17:18:33.500Z,8.05
2023-04-14T17:21:00.578Z,9.77
2023-04-14T17:23:27.727Z,9.23
2023-04-14T17:25:56.275Z,10.38
2023-04-14T17:28:23.595Z,7.13
2023-04-14T17:30:51.161Z,14.93
2023-04-14T17:33:19.993Z,8.43
2023-04-14T17:35:47.044Z,11.27
2023-04-14T17:38:14.182Z,10.90
2023-04-14T17:40:41.155Z,11.25
2023-04-14T17:43:08.212Z,13.73
2023-04-14T17:45:35.344Z,15.57
2023-04-14T17:48:02.381Z,15.40
2023-04-14T17:50:29.690Z,13.05
2023-04-14T17:52:58.686Z,13.57
2023-04-14T17:55:26.148Z,12.05
2023-04-14T17:57:53.983Z,13.05
2023-04-14T18:00:21.164Z,11.48
2023-04-14T18:02:48.173Z,13.38
2023-04-14T18:05:15.374Z,17.52
2023-04-14T18:07:42.510Z,12.18
2023-04-14T18:10:09.906Z,13.00
2023-04-14T18:12:36.894Z,8.90
2023-04-14T18:15:05.718Z,9.80
2023-04-14T18:17:34.875Z,10.35
2023-04-14T18:20:01.988Z,10.32
2023-04-14T18:22:29.150Z,12.85
2023-04-14T18:24:56.136Z,14.57
2023-04-14T18:29:54.290Z,14.85
2023-04-14T18:32:22.279Z,12.88
2023-04-14T18:34:49.411Z,10.88
2023-04-14T18:37:16.365Z,12.23
2023-04-14T18:39:43.685Z,10.15
2023-04-14T18:42:11.408Z,13.25
2023-04-14T18:44:38.430Z,12.43
2023-04-14T18:47:05.356Z,16.75
2023-04-14T18:49:32.312Z,11.43
2023-04-14T18:51:59.362Z,11.48
2023-04-14T18:54:26.352Z,11.40
2023-04-14T18:56:53.329Z,10.73
2023-04-14T18:59:21.055Z,11.65
2023-04-14T19:01:48.046Z,10.30
2023-04-14T19:04:15.075Z,12.38
2023-04-14T19:06:42.159Z,10.25
2023-04-14T19:09:09.163Z,9.38
2023-04-14T19:11:36.846Z,10.88
2023-04-14T19:14:04.934Z,10.85
2023-04-14T19:16:32.753Z,11.15
2023-04-14T19:19:00.013Z,12.75
2023-04-14T19:21:27.240Z,14.48
2023-04-14T19:23:57.386Z,8.95
2023-04-14T19:26:24.594Z,8.52
2023-04-14T19:28:53.385Z,10.90
2023-04-14T19:31:21.471Z,13.95
2023-04-14T19:33:49.350Z,10.52
2023-04-14T19:36:17.396Z,11.45
2023-04-14T19:38:44.622Z,9.35
2023-04-14T19:41:12.046Z,10.85
2023-04-14T19:43:39.078Z,10.88
2023-04-14T19:46:07.274Z,13.65
2023-04-14T19:48:34.667Z,12.38
2023-04-14T19:51:02.443Z,11.48
2023-04-14T19:53:29.696Z,13.60
2023-04-14T19:55:58.164Z,13.35
2023-04-14T19:58:28.425Z,11.98
2023-04-14T20:00:58.819Z,13.18
2023-04-14T20:03:26.855Z,12.40
2023-04-14T20:05:56.678Z,12.20
2023-04-14T20:08:25.303Z,13.43
2023-04-14T20:10:54.104Z,11.50
2023-04-14T20:13:23.337Z,12.35
2023-04-14T20:15:53.829Z,11.68
2023-04-14T20:18:22.659Z,11.13
2023-04-14T20:20:50.182Z,12.00
2023-04-14T20:23:17.225Z,14.15
2023-04-14T20:25:45.418Z,13.60
2023-04-14T20:28:12.444Z,11.55
2023-04-14T20:30:39.603Z,11.02
2023-04-14T20:33:06.923Z,11.57
2023-04-14T20:35:38.213Z,11.40
2023-04-14T20:38:05.217Z,12.07
2023-04-14T20:40:32.656Z,10.10
2023-04-14T20:43:00.035Z,12.02
2023-04-14T20:45:27.184Z,9.77
2023-04-14T20:47:54.157Z,12.27
2023-04-14T20:50:21.358Z,13.13
2023-04-14T20:52:49.781Z,13.35
2023-04-14T20:55:19.443Z,10.90
2023-04-14T20:57:48.026Z,12.95
2023-04-14T21:00:16.688Z,11.02
2023-04-14T21:02:44.840Z,10.57
2023-04-14T21:05:12.643Z,9.43
2023-04-14T21:07:40.073Z,12.07
2023-04-14T21:10:10.519Z,12.13
2023-04-14T21:13:49.613Z,9.93
2023-04-14T21:15:49.344Z,11.38
2023-04-14T21:18:12.104Z,15.75
2023-04-14T21:20:39.844Z,10.30
2023-04-14T21:23:07.243Z,11.73
2023-04-14T21:25:35.401Z,12.23
2023-04-14T21:28:03.505Z,12.13
2023-04-14T21:30:31.526Z,13.15
2023-04-14T21:32:59.165Z,9.05
2023-04-14T21:35:26.226Z,12.65
2023-04-14T21:37:53.406Z,9.63
2023-04-14T21:40:21.398Z,11.38
2023-04-14T21:42:48.428Z,11.80
2023-04-14T21:45:15.412Z,12.25
2023-04-14T21:47:42.719Z,13.15
2023-04-14T21:50:10.473Z,9.40
2023-04-14T21:52:37.403Z,13.13
2023-04-14T21:55:04.789Z,12.75
2023-04-14T21:57:42.569Z,10.32
2023-04-14T22:00:17.869Z,10.40
2023-04-14T22:02:45.603Z,11.73
2023-04-14T22:05:14.613Z,13.50
2023-04-14T22:07:41.696Z,10.07
2023-04-14T22:10:09.075Z,10.10
2023-04-14T22:12:36.189Z,13.50
2023-04-14T22:15:08.739Z,10.90
2023-04-14T22:17:38.772Z,8.75
2023-04-14T22:20:08.086Z,10.73
2023-04-14T22:22:36.629Z,11.45
2023-04-14T22:25:04.411Z,12.50
2023-04-14T22:27:33.383Z,11.32
2023-04-14T22:30:01.932Z,10.43
2023-04-14T22:32:29.153Z,11.65
2023-04-14T22:34:56.313Z,9.77
2023-04-14T22:37:23.346Z,9.38
2023-04-14T22:39:50.408Z,11.38
2023-04-14T22:42:17.534Z,13.93
2023-04-14T22:44:44.528Z,12.23
2023-04-14T22:47:11.514Z,9.73
2023-04-14T22:49:38.493Z,10.88
2023-04-14T22:52:05.601Z,10.88
2023-04-14T22:54:32.830Z,12.13
2023-04-14T22:57:00.086Z,10.02
2023-04-14T22:59:27.097Z,12.15
2023-04-14T23:01:54.194Z,11.38
2023-04-14T23:04:21.591Z,11.45
2023-04-14T23:06:48.869Z,11.77
2023-04-14T23:09:16.079Z,12.90
2023-04-14T23:11:43.221Z,9.88
2023-04-14T23:14:10.157Z,12.68
2023-04-14T23:16:37.151Z,11.60
2023-04-14T23:19:04.378Z,10.02
2023-04-14T23:21:31.430Z,11.98
2023-04-14T23:23:58.430Z,10.80
2023-04-14T23:26:25.612Z,10.75
2023-04-14T23:28:52.986Z,12.25
2023-04-14T23:31:20.123Z,12.38
2023-04-14T23:33:49.499Z,10.70
2023-04-14T23:36:16.654Z,14.93
2023-04-14T23:38:43.739Z,11.57
2023-04-14T23:41:11.136Z,11.55
2023-04-14T23:43:38.111Z,11.20
2023-04-14T23:46:05.115Z,12.55
2023-04-14T23:48:32.504Z,10.18
2023-04-14T23:51:04.322Z,11.80
2023-04-14T23:53:44.999Z,14.18
2023-04-14T23:56:12.131Z,13.43
2023-04-14T23:58:39.075Z,10.60
